sensor_id;sensor_type;location;lat;lon;timestamp;temperature;humidity
44767;DHT22;30487;48.716;9.272;2022-11-20T00:01:19;6.90;99.90
44767;DHT22;30487;48.716;9.272;2022-11-20T00:03:45;6.80;99.90
44767;DHT22;30487;48.716;9.272;2022-11-20T00:06:13;6.90;99.90
44767;DHT22;30487;48.716;9.272;2022-11-20T00:08:40;6.80;99.90
44767;DHT22;30487;48.716;9.272;2022-11-20T00:11:10;6.80;99.90
44767;DHT22;30487;48.716;9.272;2022-11-20T00:13:36;6.70;99.90
44767;DHT22;30487;48.716;9.272;2022-11-20T00:16:03;6.70;99.90
44767;DHT22;30487;48.716;9.272;2022-11-20T00:18:29;6.60;99.90
44767;DHT22;30487;48.716;9.272;2022-11-20T00:21:05;6.60;99.90
44767;DHT22;30487;48.716;9.272;2022-11-20T00:23:31;6.50;99.90
44767;DHT22;30487;48.716;9.272;2022-11-20T00:26:02;6.50;99.90
44767;DHT22;30487;48.716;9.272;2022-11-20T00:28:27;6.50;99.90
44767;DHT22;30487;48.716;9.272;2022-11-20T00:31:01;6.40;99.90
44767;DHT22;30487;48.716;9.272;2022-11-20T00:33:27;6.50;99.90
44767;DHT22;30487;48.716;9.272;2022-11-20T00:35:53;6.40;99.90
44767;DHT22;30487;48.716;9.272;2022-11-20T00:38:18;6.40;99.90
44767;DHT22;30487;48.716;9.272;2022-11-20T00:40:44;6.30;99.90
44767;DHT22;30487;48.716;9.272;2022-11-20T00:43:09;6.30;99.90
44767;DHT22;30487;48.716;9.272;2022-11-20T00:45:35;6.30;99.90
44767;DHT22;30487;48.716;9.272;2022-11-20T00:48:01;6.40;99.90
44767;DHT22;30487;48.716;9.272;2022-11-20T00:50:26;6.40;99.90
44767;DHT22;30487;48.716;9.272;2022-11-20T00:52:52;6.40;99.90
44767;DHT22;30487;48.716;9.272;2022-11-20T00:55:17;6.30;99.90
44767;DHT22;30487;48.716;9.272;2022-11-20T00:57:43;6.30;99.90
44767;DHT22;30487;48.716;9.272;2022-11-20T01:00:09;6.30;99.90
44767;DHT22;30487;48.716;9.272;2022-11-20T01:02:34;6.30;99.90
44767;DHT22;30487;48.716;9.272;2022-11-20T01:05:00;6.30;99.90
44767;DHT22;30487;48.716;9.272;2022-11-20T01:07:25;6.30;99.90
44767;DHT22;30487;48.716;9.272;2022-11-20T01:09:51;6.40;99.90
44767;DHT22;30487;48.716;9.272;2022-11-20T01:12:16;6.40;99.90
44767;DHT22;30487;48.716;9.272;2022-11-20T01:14:42;6.40;99.90
44767;DHT22;30487;48.716;9.272;2022-11-20T01:17:08;6.40;99.90
44767;DHT22;30487;48.716;9.272;2022-11-20T01:19:33;6.40;99.90
44767;DHT22;30487;48.716;9.272;2022-11-20T01:21:59;6.40;99.90
44767;DHT22;30487;48.716;9.272;2022-11-20T01:24:24;6.40;99.90
44767;DHT22;30487;48.716;9.272;2022-11-20T01:26:51;6.40;99.90
44767;DHT22;30487;48.716;9.272;2022-11-20T01:29:20;6.40;99.90
44767;DHT22;30487;48.716;9.272;2022-11-20T01:31:46;6.30;99.90
44767;DHT22;30487;48.716;9.272;2022-11-20T01:34:15;6.30;99.90
44767;DHT22;30487;48.716;9.272;2022-11-20T01:36:41;6.30;99.90
44767;DHT22;30487;48.716;9.272;2022-11-20T01:39:11;6.40;99.90
44767;DHT22;30487;48.716;9.272;2022-11-20T01:41:37;6.30;99.90
44767;DHT22;30487;48.716;9.272;2022-11-20T01:47:42;6.30;99.90
44767;DHT22;30487;48.716;9.272;2022-11-20T01:50:14;6.30;99.90
44767;DHT22;30487;48.716;9.272;2022-11-20T01:53:03;6.30;99.90
44767;DHT22;30487;48.716;9.272;2022-11-20T01:55:37;6.20;99.90
44767;DHT22;30487;48.716;9.272;2022-11-20T01:58:04;6.20;99.90
44767;DHT22;30487;48.716;9.272;2022-11-20T02:00:30;6.20;99.90
44767;DHT22;30487;48.716;9.272;2022-11-20T02:02:58;6.20;99.90
44767;DHT22;30487;48.716;9.272;2022-11-20T02:07:57;6.10;99.90
44767;DHT22;30487;48.716;9.272;2022-11-20T02:10:23;6.10;99.90
44767;DHT22;30487;48.716;9.272;2022-11-20T02:12:49;6.10;99.90
44767;DHT22;30487;48.716;9.272;2022-11-20T02:15:33;6.00;99.90
44767;DHT22;30487;48.716;9.272;2022-11-20T02:17:59;6.00;99.90
44767;DHT22;30487;48.716;9.272;2022-11-20T02:20:25;6.00;99.90
44767;DHT22;30487;48.716;9.272;2022-11-20T02:22:56;6.00;99.90
44767;DHT22;30487;48.716;9.272;2022-11-20T02:25:24;5.90;99.90
44767;DHT22;30487;48.716;9.272;2022-11-20T02:27:51;5.90;99.90
44767;DHT22;30487;48.716;9.272;2022-11-20T02:30:17;5.90;99.90
44767;DHT22;30487;48.716;9.272;2022-11-20T02:32:42;5.90;99.90
44767;DHT22;30487;48.716;9.272;2022-11-20T02:35:38;5.90;99.90
44767;DHT22;30487;48.716;9.272;2022-11-20T02:37:59;5.90;99.90
44767;DHT22;30487;48.716;9.272;2022-11-20T02:40:26;5.90;99.90
44767;DHT22;30487;48.716;9.272;2022-11-20T02:42:52;5.90;99.90
44767;DHT22;30487;48.716;9.272;2022-11-20T02:45:18;5.90;99.90
44767;DHT22;30487;48.716;9.272;2022-11-20T02:47:43;5.90;99.90
44767;DHT22;30487;48.716;9.272;2022-11-20T02:50:09;5.90;99.90
44767;DHT22;30487;48.716;9.272;2022-11-20T02:52:35;5.90;99.90
44767;DHT22;30487;48.716;9.272;2022-11-20T02:55:00;5.90;99.90
44767;DHT22;30487;48.716;9.272;2022-11-20T02:57:26;5.90;99.90
44767;DHT22;30487;48.716;9.272;2022-11-20T02:59:51;5.80;99.90
44767;DHT22;30487;48.716;9.272;2022-11-20T03:02:17;5.80;99.90
44767;DHT22;30487;48.716;9.272;2022-11-20T03:04:43;5.80;99.90
44767;DHT22;30487;48.716;9.272;2022-11-20T03:07:09;5.80;99.90
44767;DHT22;30487;48.716;9.272;2022-11-20T03:09:35;5.80;99.90
44767;DHT22;30487;48.716;9.272;2022-11-20T03:12:00;5.70;99.90
44767;DHT22;30487;48.716;9.272;2022-11-20T03:14:26;5.70;99.90
44767;DHT22;30487;48.716;9.272;2022-11-20T03:16:51;5.70;99.90
44767;DHT22;30487;48.716;9.272;2022-11-20T03:19:17;5.70;99.90
44767;DHT22;30487;48.716;9.272;2022-11-20T03:21:43;5.70;99.90
44767;DHT22;30487;48.716;9.272;2022-11-20T03:24:08;5.70;99.90
44767;DHT22;30487;48.716;9.272;2022-11-20T03:26:34;5.70;99.90
44767;DHT22;30487;48.716;9.272;2022-11-20T03:29:02;5.70;99.90
44767;DHT22;30487;48.716;9.272;2022-11-20T03:31:34;5.70;99.90
44767;DHT22;30487;48.716;9.272;2022-11-20T03:34:00;5.70;99.90
44767;DHT22;30487;48.716;9.272;2022-11-20T03:36:27;5.70;99.90
44767;DHT22;30487;48.716;9.272;2022-11-20T03:38:54;5.70;99.90
44767;DHT22;30487;48.716;9.272;2022-11-20T03:41:22;5.80;99.90
44767;DHT22;30487;48.716;9.272;2022-11-20T03:43:49;5.80;99.90
44767;DHT22;30487;48.716;9.272;2022-11-20T03:46:15;5.80;99.90
44767;DHT22;30487;48.716;9.272;2022-11-20T03:48:41;5.80;99.90
44767;DHT22;30487;48.716;9.272;2022-11-20T03:51:15;5.80;99.90
44767;DHT22;30487;48.716;9.272;2022-11-20T03:53:44;5.90;99.90
44767;DHT22;30487;48.716;9.272;2022-11-20T03:56:11;5.90;99.90
44767;DHT22;30487;48.716;9.272;2022-11-20T03:58:38;5.90;99.90
44767;DHT22;30487;48.716;9.272;2022-11-20T04:01:18;5.90;99.90
44767;DHT22;30487;48.716;9.272;2022-11-20T04:03:44;5.90;99.90
44767;DHT22;30487;48.716;9.272;2022-11-20T04:06:16;6.00;99.90
44767;DHT22;30487;48.716;9.272;2022-11-20T04:08:42;5.90;99.90
44767;DHT22;30487;48.716;9.272;2022-11-20T04:11:18;5.90;99.90
44767;DHT22;30487;48.716;9.272;2022-11-20T04:13:53;5.90;99.90
44767;DHT22;30487;48.716;9.272;2022-11-20T04:16:20;5.90;99.90
44767;DHT22;30487;48.716;9.272;2022-11-20T04:18:46;5.80;99.90
44767;DHT22;30487;48.716;9.272;2022-11-20T04:21:12;5.90;99.90
44767;DHT22;30487;48.716;9.272;2022-11-20T04:23:38;5.90;99.90
44767;DHT22;30487;48.716;9.272;2022-11-20T04:26:06;5.90;99.90
44767;DHT22;30487;48.716;9.272;2022-11-20T04:28:32;5.90;99.90
44767;DHT22;30487;48.716;9.272;2022-11-20T04:31:06;5.80;99.90
44767;DHT22;30487;48.716;9.272;2022-11-20T04:33:32;5.90;99.90
44767;DHT22;30487;48.716;9.272;2022-11-20T04:38:30;5.90;99.90
44767;DHT22;30487;48.716;9.272;2022-11-20T04:41:01;5.90;99.90
44767;DHT22;30487;48.716;9.272;2022-11-20T04:43:27;5.90;99.90
44767;DHT22;30487;48.716;9.272;2022-11-20T04:45:57;5.90;99.90
44767;DHT22;30487;48.716;9.272;2022-11-20T04:48:24;5.90;99.90
44767;DHT22;30487;48.716;9.272;2022-11-20T04:50:50;5.90;99.90
44767;DHT22;30487;48.716;9.272;2022-11-20T04:53:16;5.80;99.90
44767;DHT22;30487;48.716;9.272;2022-11-20T04:55:42;5.90;99.90
44767;DHT22;30487;48.716;9.272;2022-11-20T04:58:08;5.90;99.90
44767;DHT22;30487;48.716;9.272;2022-11-20T05:00:33;5.90;99.90
44767;DHT22;30487;48.716;9.272;2022-11-20T05:02:59;5.80;99.90
44767;DHT22;30487;48.716;9.272;2022-11-20T05:05:25;5.80;99.90
44767;DHT22;30487;48.716;9.272;2022-11-20T05:07:50;5.80;99.90
44767;DHT22;30487;48.716;9.272;2022-11-20T05:10:16;5.80;99.90
44767;DHT22;30487;48.716;9.272;2022-11-20T05:12:41;5.80;99.90
44767;DHT22;30487;48.716;9.272;2022-11-20T05:15:07;5.80;99.90
44767;DHT22;30487;48.716;9.272;2022-11-20T05:17:33;5.90;99.90
44767;DHT22;30487;48.716;9.272;2022-11-20T05:19:59;5.90;99.90
44767;DHT22;30487;48.716;9.272;2022-11-20T05:22:24;5.90;99.90
44767;DHT22;30487;48.716;9.272;2022-11-20T05:24:50;5.90;99.90
44767;DHT22;30487;48.716;9.272;2022-11-20T05:27:15;5.90;99.90
44767;DHT22;30487;48.716;9.272;2022-11-20T05:29:41;6.00;99.90
44767;DHT22;30487;48.716;9.272;2022-11-20T05:32:06;5.90;99.90
44767;DHT22;30487;48.716;9.272;2022-11-20T05:34:35;6.00;99.90
44767;DHT22;30487;48.716;9.272;2022-11-20T05:37:00;5.90;99.90
44767;DHT22;30487;48.716;9.272;2022-11-20T05:39:26;6.00;99.90
44767;DHT22;30487;48.716;9.272;2022-11-20T05:41:51;6.00;99.90
44767;DHT22;30487;48.716;9.272;2022-11-20T05:44:37;6.00;99.90
44767;DHT22;30487;48.716;9.272;2022-11-20T05:47:03;6.00;99.90
44767;DHT22;30487;48.716;9.272;2022-11-20T05:49:28;6.00;99.90
44767;DHT22;30487;48.716;9.272;2022-11-20T05:51:54;6.00;99.90
44767;DHT22;30487;48.716;9.272;2022-11-20T05:54:19;6.00;99.90
44767;DHT22;30487;48.716;9.272;2022-11-20T05:56:45;6.00;99.90
44767;DHT22;30487;48.716;9.272;2022-11-20T05:59:10;6.00;99.90
44767;DHT22;30487;48.716;9.272;2022-11-20T06:01:36;6.00;99.90
44767;DHT22;30487;48.716;9.272;2022-11-20T06:04:02;6.10;99.90
44767;DHT22;30487;48.716;9.272;2022-11-20T06:06:27;6.00;99.90
44767;DHT22;30487;48.716;9.272;2022-11-20T06:08:54;6.10;99.90
44767;DHT22;30487;48.716;9.272;2022-11-20T06:11:20;6.10;99.90
44767;DHT22;30487;48.716;9.272;2022-11-20T06:13:46;6.10;99.90
44767;DHT22;30487;48.716;9.272;2022-11-20T06:16:14;6.10;99.90
44767;DHT22;30487;48.716;9.272;2022-11-20T06:18:40;6.10;99.90
44767;DHT22;30487;48.716;9.272;2022-11-20T06:21:10;6.10;99.90
44767;DHT22;30487;48.716;9.272;2022-11-20T06:23:37;6.10;99.90
44767;DHT22;30487;48.716;9.272;2022-11-20T06:26:05;6.10;99.90
44767;DHT22;30487;48.716;9.272;2022-11-20T06:28:31;6.10;99.90
44767;DHT22;30487;48.716;9.272;2022-11-20T06:30:57;6.10;99.90
44767;DHT22;30487;48.716;9.272;2022-11-20T06:33:23;6.10;99.90
44767;DHT22;30487;48.716;9.272;2022-11-20T06:35:49;6.10;99.90
44767;DHT22;30487;48.716;9.272;2022-11-20T06:38:14;6.00;99.90
44767;DHT22;30487;48.716;9.272;2022-11-20T06:40:43;6.00;99.90
44767;DHT22;30487;48.716;9.272;2022-11-20T06:43:09;6.00;99.90
44767;DHT22;30487;48.716;9.272;2022-11-20T06:45:35;6.00;99.90
44767;DHT22;30487;48.716;9.272;2022-11-20T06:48:01;6.00;99.90
44767;DHT22;30487;48.716;9.272;2022-11-20T06:50:27;6.00;99.90
44767;DHT22;30487;48.716;9.272;2022-11-20T06:52:52;6.00;99.90
44767;DHT22;30487;48.716;9.272;2022-11-20T06:55:18;6.00;99.90
44767;DHT22;30487;48.716;9.272;2022-11-20T06:57:43;6.00;99.90
44767;DHT22;30487;48.716;9.272;2022-11-20T07:00:09;6.10;99.90
44767;DHT22;30487;48.716;9.272;2022-11-20T07:02:35;6.00;99.90
44767;DHT22;30487;48.716;9.272;2022-11-20T07:05:00;6.10;99.90
44767;DHT22;30487;48.716;9.272;2022-11-20T07:07:26;6.20;99.90
44767;DHT22;30487;48.716;9.272;2022-11-20T07:09:52;6.20;99.90
44767;DHT22;30487;48.716;9.272;2022-11-20T07:12:17;6.20;99.90
44767;DHT22;30487;48.716;9.272;2022-11-20T07:14:43;6.20;99.90
44767;DHT22;30487;48.716;9.272;2022-11-20T07:17:08;6.30;99.90
44767;DHT22;30487;48.716;9.272;2022-11-20T07:19:34;6.30;99.90
44767;DHT22;30487;48.716;9.272;2022-11-20T07:21:59;6.30;99.90
44767;DHT22;30487;48.716;9.272;2022-11-20T07:24:25;6.30;99.90
44767;DHT22;30487;48.716;9.272;2022-11-20T07:26:50;6.30;99.90
44767;DHT22;30487;48.716;9.272;2022-11-20T07:29:16;6.20;99.90
44767;DHT22;30487;48.716;9.272;2022-11-20T07:31:42;6.30;99.90
44767;DHT22;30487;48.716;9.272;2022-11-20T07:34:08;6.30;99.90
44767;DHT22;30487;48.716;9.272;2022-11-20T07:36:34;6.30;99.90
44767;DHT22;30487;48.716;9.272;2022-11-20T07:39:00;6.30;99.90
44767;DHT22;30487;48.716;9.272;2022-11-20T07:41:26;6.40;99.90
44767;DHT22;30487;48.716;9.272;2022-11-20T07:43:53;6.40;99.90
44767;DHT22;30487;48.716;9.272;2022-11-20T07:46:18;6.40;99.90
44767;DHT22;30487;48.716;9.272;2022-11-20T07:48:44;6.50;99.90
44767;DHT22;30487;48.716;9.272;2022-11-20T07:51:09;6.50;99.90
44767;DHT22;30487;48.716;9.272;2022-11-20T07:53:35;6.60;99.90
44767;DHT22;30487;48.716;9.272;2022-11-20T07:56:02;6.70;99.90
44767;DHT22;30487;48.716;9.272;2022-11-20T07:58:29;6.60;99.90
44767;DHT22;30487;48.716;9.272;2022-11-20T08:00:55;6.70;99.90
44767;DHT22;30487;48.716;9.272;2022-11-20T08:03:21;6.70;99.90
44767;DHT22;30487;48.716;9.272;2022-11-20T08:05:46;6.80;99.90
44767;DHT22;30487;48.716;9.272;2022-11-20T08:08:12;6.90;99.90
44767;DHT22;30487;48.716;9.272;2022-11-20T08:10:37;7.00;99.90
44767;DHT22;30487;48.716;9.272;2022-11-20T08:13:03;7.20;99.90
44767;DHT22;30487;48.716;9.272;2022-11-20T08:15:50;7.40;99.90
44767;DHT22;30487;48.716;9.272;2022-11-20T08:18:19;7.40;99.90
44767;DHT22;30487;48.716;9.272;2022-11-20T08:20:45;7.30;99.90
44767;DHT22;30487;48.716;9.272;2022-11-20T08:23:10;7.30;99.90
44767;DHT22;30487;48.716;9.272;2022-11-20T08:25:37;7.10;99.90
44767;DHT22;30487;48.716;9.272;2022-11-20T08:28:08;7.00;99.90
44767;DHT22;30487;48.716;9.272;2022-11-20T08:30:35;7.00;99.90
44767;DHT22;30487;48.716;9.272;2022-11-20T08:33:03;7.00;99.90
44767;DHT22;30487;48.716;9.272;2022-11-20T08:35:33;7.00;99.90
44767;DHT22;30487;48.716;9.272;2022-11-20T08:37:59;6.90;99.90
44767;DHT22;30487;48.716;9.272;2022-11-20T08:40:24;7.00;99.90
44767;DHT22;30487;48.716;9.272;2022-11-20T08:42:50;6.90;99.90
44767;DHT22;30487;48.716;9.272;2022-11-20T08:45:18;6.90;99.90
44767;DHT22;30487;48.716;9.272;2022-11-20T08:47:44;6.90;99.90
44767;DHT22;30487;48.716;9.272;2022-11-20T08:50:12;6.90;99.90
44767;DHT22;30487;48.716;9.272;2022-11-20T08:52:37;6.90;99.90
44767;DHT22;30487;48.716;9.272;2022-11-20T08:55:04;6.90;99.90
44767;DHT22;30487;48.716;9.272;2022-11-20T08:57:34;7.00;99.90
44767;DHT22;30487;48.716;9.272;2022-11-20T09:00:01;7.00;99.90
44767;DHT22;30487;48.716;9.272;2022-11-20T09:02:28;7.00;99.90
44767;DHT22;30487;48.716;9.272;2022-11-20T09:04:53;7.00;99.90
44767;DHT22;30487;48.716;9.272;2022-11-20T09:07:19;7.10;99.90
44767;DHT22;30487;48.716;9.272;2022-11-20T09:09:45;7.10;99.90
44767;DHT22;30487;48.716;9.272;2022-11-20T09:12:11;7.20;99.90
44767;DHT22;30487;48.716;9.272;2022-11-20T09:14:36;7.20;99.90
44767;DHT22;30487;48.716;9.272;2022-11-20T09:17:02;7.30;99.90
44767;DHT22;30487;48.716;9.272;2022-11-20T09:19:27;7.30;99.90
44767;DHT22;30487;48.716;9.272;2022-11-20T09:21:53;7.30;99.90
44767;DHT22;30487;48.716;9.272;2022-11-20T09:24:19;7.40;99.90
44767;DHT22;30487;48.716;9.272;2022-11-20T09:26:46;7.40;99.90
44767;DHT22;30487;48.716;9.272;2022-11-20T09:29:11;7.40;99.90
44767;DHT22;30487;48.716;9.272;2022-11-20T09:31:37;7.50;99.90
44767;DHT22;30487;48.716;9.272;2022-11-20T09:34:03;7.50;99.90
44767;DHT22;30487;48.716;9.272;2022-11-20T09:36:28;7.50;99.90
44767;DHT22;30487;48.716;9.272;2022-11-20T09:38:54;7.40;99.90
44767;DHT22;30487;48.716;9.272;2022-11-20T09:41:47;7.40;99.90
44767;DHT22;30487;48.716;9.272;2022-11-20T09:50:55;7.40;99.90
44767;DHT22;30487;48.716;9.272;2022-11-20T09:55:22;7.40;99.90
44767;DHT22;30487;48.716;9.272;2022-11-20T09:57:51;7.30;99.90
44767;DHT22;30487;48.716;9.272;2022-11-20T10:00:17;7.30;99.90
44767;DHT22;30487;48.716;9.272;2022-11-20T10:03:00;7.40;99.90
44767;DHT22;30487;48.716;9.272;2022-11-20T10:05:49;7.40;99.90
44767;DHT22;30487;48.716;9.272;2022-11-20T10:08:18;7.40;99.90
44767;DHT22;30487;48.716;9.272;2022-11-20T10:30:23;7.50;99.90
44767;DHT22;30487;48.716;9.272;2022-11-20T10:33:21;7.40;99.90
44767;DHT22;30487;48.716;9.272;2022-11-20T10:36:01;7.40;99.90
44767;DHT22;30487;48.716;9.272;2022-11-20T10:41:01;7.40;99.90
44767;DHT22;30487;48.716;9.272;2022-11-20T10:43:47;7.30;99.90
44767;DHT22;30487;48.716;9.272;2022-11-20T10:46:20;7.40;99.90
44767;DHT22;30487;48.716;9.272;2022-11-20T10:48:50;7.40;99.90
44767;DHT22;30487;48.716;9.272;2022-11-20T10:51:37;7.40;99.90
44767;DHT22;30487;48.716;9.272;2022-11-20T11:01:48;7.30;99.90
44767;DHT22;30487;48.716;9.272;2022-11-20T11:04:37;7.30;99.90
44767;DHT22;30487;48.716;9.272;2022-11-20T11:07:27;7.30;99.90
44767;DHT22;30487;48.716;9.272;2022-11-20T11:09:55;7.30;99.90
44767;DHT22;30487;48.716;9.272;2022-11-20T11:12:24;7.30;99.90
44767;DHT22;30487;48.716;9.272;2022-11-20T11:14:54;7.30;99.90
44767;DHT22;30487;48.716;9.272;2022-11-20T11:17:33;7.30;99.90
44767;DHT22;30487;48.716;9.272;2022-11-20T11:20:17;7.30;99.90
44767;DHT22;30487;48.716;9.272;2022-11-20T11:22:50;7.30;99.90
44767;DHT22;30487;48.716;9.272;2022-11-20T11:25:32;7.40;99.90
44767;DHT22;30487;48.716;9.272;2022-11-20T11:28:02;7.40;99.90
44767;DHT22;30487;48.716;9.272;2022-11-20T11:30:29;7.50;99.90
44767;DHT22;30487;48.716;9.272;2022-11-20T11:33:04;7.50;99.90
44767;DHT22;30487;48.716;9.272;2022-11-20T11:35:30;7.60;99.90
44767;DHT22;30487;48.716;9.272;2022-11-20T11:38:06;7.70;99.90
44767;DHT22;30487;48.716;9.272;2022-11-20T11:40:34;7.90;99.90
44767;DHT22;30487;48.716;9.272;2022-11-20T11:43:04;8.10;99.90
44767;DHT22;30487;48.716;9.272;2022-11-20T11:45:30;8.50;99.90
44767;DHT22;30487;48.716;9.272;2022-11-20T11:48:01;8.80;99.90
44767;DHT22;30487;48.716;9.272;2022-11-20T11:50:29;9.10;99.90
44767;DHT22;30487;48.716;9.272;2022-11-20T11:53:13;9.20;99.90
44767;DHT22;30487;48.716;9.272;2022-11-20T11:55:46;9.10;99.90
44767;DHT22;30487;48.716;9.272;2022-11-20T11:58:39;9.10;99.90
44767;DHT22;30487;48.716;9.272;2022-11-20T12:01:38;9.80;99.90
44767;DHT22;30487;48.716;9.272;2022-11-20T12:04:14;11.30;99.90
44767;DHT22;30487;48.716;9.272;2022-11-20T12:06:50;12.80;99.90
44767;DHT22;30487;48.716;9.272;2022-11-20T12:09:18;14.00;99.90
44767;DHT22;30487;48.716;9.272;2022-11-20T12:11:52;14.70;99.90
44767;DHT22;30487;48.716;9.272;2022-11-20T12:14:37;14.80;99.70
44767;DHT22;30487;48.716;9.272;2022-11-20T12:17:05;14.10;99.70
44767;DHT22;30487;48.716;9.272;2022-11-20T12:19:34;13.80;99.90
44767;DHT22;30487;48.716;9.272;2022-11-20T12:27:38;12.40;99.90
44767;DHT22;30487;48.716;9.272;2022-11-20T12:30:16;11.90;99.90
44767;DHT22;30487;48.716;9.272;2022-11-20T12:39:05;11.30;99.90
44767;DHT22;30487;48.716;9.272;2022-11-20T12:44:52;11.10;99.90
44767;DHT22;30487;48.716;9.272;2022-11-20T12:47:59;10.90;99.90
44767;DHT22;30487;48.716;9.272;2022-11-20T12:55:54;10.10;99.90
44767;DHT22;30487;48.716;9.272;2022-11-20T12:58:51;10.10;99.90
44767;DHT22;30487;48.716;9.272;2022-11-20T13:06:45;14.30;97.20
44767;DHT22;30487;48.716;9.272;2022-11-20T13:09:13;15.40;95.60
44767;DHT22;30487;48.716;9.272;2022-11-20T13:11:57;16.10;92.50
44767;DHT22;30487;48.716;9.272;2022-11-20T13:17:18;15.40;90.20
44767;DHT22;30487;48.716;9.272;2022-11-20T13:19:54;15.20;90.30
44767;DHT22;30487;48.716;9.272;2022-11-20T13:22:28;14.20;91.10
44767;DHT22;30487;48.716;9.272;2022-11-20T13:24:55;13.50;92.30
44767;DHT22;30487;48.716;9.272;2022-11-20T13:27:22;12.90;93.00
44767;DHT22;30487;48.716;9.272;2022-11-20T13:30:14;13.00;93.90
44767;DHT22;30487;48.716;9.272;2022-11-20T13:32:58;14.10;93.40
44767;DHT22;30487;48.716;9.272;2022-11-20T13:35:29;15.30;91.40
44767;DHT22;30487;48.716;9.272;2022-11-20T13:38:08;16.20;90.00
44767;DHT22;30487;48.716;9.272;2022-11-20T13:40:50;15.80;88.40
44767;DHT22;30487;48.716;9.272;2022-11-20T13:43:38;15.80;88.20
44767;DHT22;30487;48.716;9.272;2022-11-20T13:46:06;16.30;85.80
44767;DHT22;30487;48.716;9.272;2022-11-20T13:48:34;16.80;83.30
44767;DHT22;30487;48.716;9.272;2022-11-20T14:02:16;12.40;90.30
44767;DHT22;30487;48.716;9.272;2022-11-20T14:04:54;12.20;90.30
44767;DHT22;30487;48.716;9.272;2022-11-20T14:07:23;11.70;90.80
44767;DHT22;30487;48.716;9.272;2022-11-20T14:09:55;11.70;91.50
44767;DHT22;30487;48.716;9.272;2022-11-20T14:12:29;12.20;91.30
44767;DHT22;30487;48.716;9.272;2022-11-20T14:14:55;12.90;90.10
44767;DHT22;30487;48.716;9.272;2022-11-20T14:17:28;12.60;90.10
44767;DHT22;30487;48.716;9.272;2022-11-20T14:20:05;12.00;90.70
44767;DHT22;30487;48.716;9.272;2022-11-20T14:22:31;11.40;91.20
44767;DHT22;30487;48.716;9.272;2022-11-20T14:27:40;10.70;92.90
44767;DHT22;30487;48.716;9.272;2022-11-20T14:30:13;10.50;93.00
44767;DHT22;30487;48.716;9.272;2022-11-20T14:32:40;10.30;93.20
44767;DHT22;30487;48.716;9.272;2022-11-20T14:35:20;10.00;93.70
44767;DHT22;30487;48.716;9.272;2022-11-20T14:37:46;9.80;94.60
44767;DHT22;30487;48.716;9.272;2022-11-20T14:40:25;9.60;95.30
44767;DHT22;30487;48.716;9.272;2022-11-20T14:42:51;9.50;96.10
44767;DHT22;30487;48.716;9.272;2022-11-20T14:45:18;9.40;96.60
44767;DHT22;30487;48.716;9.272;2022-11-20T14:47:44;9.30;97.20
44767;DHT22;30487;48.716;9.272;2022-11-20T14:50:24;9.20;97.70
44767;DHT22;30487;48.716;9.272;2022-11-20T14:52:58;9.10;98.40
44767;DHT22;30487;48.716;9.272;2022-11-20T14:55:34;9.10;99.00
44767;DHT22;30487;48.716;9.272;2022-11-20T14:58:05;9.00;99.60
44767;DHT22;30487;48.716;9.272;2022-11-20T15:00:33;8.90;99.90
44767;DHT22;30487;48.716;9.272;2022-11-20T15:02:58;8.90;99.90
44767;DHT22;30487;48.716;9.272;2022-11-20T15:08:09;8.70;99.90
44767;DHT22;30487;48.716;9.272;2022-11-20T15:10:36;8.60;99.90
44767;DHT22;30487;48.716;9.272;2022-11-20T15:13:23;8.50;99.90
44767;DHT22;30487;48.716;9.272;2022-11-20T15:15:55;8.50;99.90
44767;DHT22;30487;48.716;9.272;2022-11-20T15:18:23;8.40;99.90
44767;DHT22;30487;48.716;9.272;2022-11-20T15:20:51;8.40;99.90
44767;DHT22;30487;48.716;9.272;2022-11-20T15:23:18;8.40;99.90
44767;DHT22;30487;48.716;9.272;2022-11-20T15:25:45;8.40;99.90
44767;DHT22;30487;48.716;9.272;2022-11-20T15:28:31;8.40;99.90
44767;DHT22;30487;48.716;9.272;2022-11-20T15:30:57;8.30;99.90
44767;DHT22;30487;48.716;9.272;2022-11-20T15:33:23;8.30;99.90
44767;DHT22;30487;48.716;9.272;2022-11-20T15:35:48;8.20;99.90
44767;DHT22;30487;48.716;9.272;2022-11-20T15:38:14;8.20;99.90
44767;DHT22;30487;48.716;9.272;2022-11-20T15:40:40;8.10;99.90
44767;DHT22;30487;48.716;9.272;2022-11-20T15:43:06;8.00;99.90
44767;DHT22;30487;48.716;9.272;2022-11-20T15:48:16;7.90;99.90
44767;DHT22;30487;48.716;9.272;2022-11-20T15:53:34;7.80;99.90
44767;DHT22;30487;48.716;9.272;2022-11-20T15:56:00;7.80;99.90
44767;DHT22;30487;48.716;9.272;2022-11-20T15:58:26;7.80;99.90
44767;DHT22;30487;48.716;9.272;2022-11-20T16:00:52;7.80;99.90
44767;DHT22;30487;48.716;9.272;2022-11-20T16:03:18;7.80;99.90
44767;DHT22;30487;48.716;9.272;2022-11-20T16:05:44;7.70;99.90
44767;DHT22;30487;48.716;9.272;2022-11-20T16:08:10;7.70;99.90
44767;DHT22;30487;48.716;9.272;2022-11-20T16:10:36;7.70;99.90
44767;DHT22;30487;48.716;9.272;2022-11-20T16:13:02;7.60;99.90
44767;DHT22;30487;48.716;9.272;2022-11-20T16:15:53;7.50;99.90
44767;DHT22;30487;48.716;9.272;2022-11-20T16:18:21;7.40;99.90
44767;DHT22;30487;48.716;9.272;2022-11-20T16:20:49;7.40;99.90
44767;DHT22;30487;48.716;9.272;2022-11-20T16:23:16;7.50;99.90
44767;DHT22;30487;48.716;9.272;2022-11-20T16:25:42;7.50;99.90
44767;DHT22;30487;48.716;9.272;2022-11-20T16:28:09;7.40;99.90
44767;DHT22;30487;48.716;9.272;2022-11-20T16:30:35;7.50;99.90
44767;DHT22;30487;48.716;9.272;2022-11-20T16:33:01;7.50;99.90
44767;DHT22;30487;48.716;9.272;2022-11-20T16:35:28;7.50;99.90
44767;DHT22;30487;48.716;9.272;2022-11-20T16:37:55;7.50;99.90
44767;DHT22;30487;48.716;9.272;2022-11-20T16:40:21;7.50;99.90
44767;DHT22;30487;48.716;9.272;2022-11-20T16:42:47;7.50;99.90
44767;DHT22;30487;48.716;9.272;2022-11-20T16:45:13;7.50;99.90
44767;DHT22;30487;48.716;9.272;2022-11-20T16:47:38;7.50;99.90
44767;DHT22;30487;48.716;9.272;2022-11-20T16:50:04;7.40;99.90
44767;DHT22;30487;48.716;9.272;2022-11-20T16:52:31;7.50;99.90
44767;DHT22;30487;48.716;9.272;2022-11-20T16:54:57;7.40;99.90
44767;DHT22;30487;48.716;9.272;2022-11-20T16:57:23;7.40;99.90
44767;DHT22;30487;48.716;9.272;2022-11-20T16:59:49;7.40;99.90
44767;DHT22;30487;48.716;9.272;2022-11-20T17:02:15;7.40;99.90
44767;DHT22;30487;48.716;9.272;2022-11-20T17:04:40;7.40;99.90
44767;DHT22;30487;48.716;9.272;2022-11-20T17:07:07;7.40;99.90
44767;DHT22;30487;48.716;9.272;2022-11-20T17:09:33;7.40;99.90
44767;DHT22;30487;48.716;9.272;2022-11-20T17:11:58;7.40;99.90
44767;DHT22;30487;48.716;9.272;2022-11-20T17:14:24;7.40;99.90
44767;DHT22;30487;48.716;9.272;2022-11-20T17:16:50;7.40;99.90
44767;DHT22;30487;48.716;9.272;2022-11-20T17:19:15;7.40;99.90
44767;DHT22;30487;48.716;9.272;2022-11-20T17:21:41;7.40;99.90
44767;DHT22;30487;48.716;9.272;2022-11-20T17:24:09;7.30;99.90
44767;DHT22;30487;48.716;9.272;2022-11-20T17:26:36;7.40;99.90
44767;DHT22;30487;48.716;9.272;2022-11-20T17:29:07;7.30;99.90
44767;DHT22;30487;48.716;9.272;2022-11-20T17:31:35;7.30;99.90
44767;DHT22;30487;48.716;9.272;2022-11-20T17:34:03;7.30;99.90